sensor_id;sensor_type;location;lat;lon;timestamp;P1;durP1;ratioP1;P2;durP2;ratioP2
21743;SDS011;11034;48.556;9.342;2023-05-14T00:01:34;10.82;;;8.98;;
21743;SDS011;11034;48.556;9.342;2023-05-14T00:04:02;11.48;;;9.05;;
21743;SDS011;11034;48.556;9.342;2023-05-14T00:06:31;11.75;;;8.93;;
21743;SDS011;11034;48.556;9.342;2023-05-14T00:09:00;12.40;;;8.70;;
21743;SDS011;11034;48.556;9.342;2023-05-14T00:11:29;10.73;;;8.75;;
21743;SDS011;11034;48.556;9.342;2023-05-14T00:13:57;11.07;;;8.57;;
21743;SDS011;11034;48.556;9.342;2023-05-14T00:16:25;10.48;;;8.90;;
21743;SDS011;11034;48.556;9.342;2023-05-14T00:18:53;11.63;;;9.20;;
21743;SDS011;11034;48.556;9.342;2023-05-14T00:21:21;14.10;;;8.95;;
21743;SDS011;11034;48.556;9.342;2023-05-14T00:23:49;12.35;;;9.15;;
21743;SDS011;11034;48.556;9.342;2023-05-14T00:26:20;11.30;;;9.40;;
21743;SDS011;11034;48.556;9.342;2023-05-14T00:28:48;12.15;;;9.00;;
21743;SDS011;11034;48.556;9.342;2023-05-14T00:31:16;11.13;;;9.27;;
21743;SDS011;11034;48.556;9.342;2023-05-14T00:33:45;11.82;;;9.98;;
21743;SDS011;11034;48.556;9.342;2023-05-14T00:36:13;11.63;;;9.57;;
21743;SDS011;11034;48.556;9.342;2023-05-14T00:38:41;14.05;;;10.05;;
21743;SDS011;11034;48.556;9.342;2023-05-14T00:41:09;11.75;;;9.75;;
21743;SDS011;11034;48.556;9.342;2023-05-14T00:43:38;14.75;;;10.55;;
21743;SDS011;11034;48.556;9.342;2023-05-14T00:46:06;14.48;;;11.68;;
21743;SDS011;11034;48.556;9.342;2023-05-14T00:48:35;14.32;;;10.90;;
21743;SDS011;11034;48.556;9.342;2023-05-14T00:51:03;15.50;;;12.10;;
21743;SDS011;11034;48.556;9.342;2023-05-14T00:53:31;13.35;;;11.10;;
21743;SDS011;11034;48.556;9.342;2023-05-14T00:56:00;14.85;;;11.50;;
21743;SDS011;11034;48.556;9.342;2023-05-14T00:58:30;13.50;;;10.77;;
21743;SDS011;11034;48.556;9.342;2023-05-14T01:01:00;13.10;;;10.82;;
21743;SDS011;11034;48.556;9.342;2023-05-14T01:03:28;13.55;;;10.95;;
21743;SDS011;11034;48.556;9.342;2023-05-14T01:06:00;12.07;;;10.07;;
21743;SDS011;11034;48.556;9.342;2023-05-14T01:08:39;14.88;;;11.18;;
21743;SDS011;11034;48.556;9.342;2023-05-14T01:11:18;14.30;;;10.20;;
21743;SDS011;11034;48.556;9.342;2023-05-14T01:13:52;12.50;;;10.13;;
21743;SDS011;11034;48.556;9.342;2023-05-14T01:16:30;13.00;;;10.20;;
21743;SDS011;11034;48.556;9.342;2023-05-14T01:19:00;13.23;;;10.35;;
21743;SDS011;11034;48.556;9.342;2023-05-14T01:21:42;14.52;;;10.90;;
21743;SDS011;11034;48.556;9.342;2023-05-14T01:24:10;15.68;;;10.55;;
21743;SDS011;11034;48.556;9.342;2023-05-14T01:26:38;13.27;;;10.40;;
21743;SDS011;11034;48.556;9.342;2023-05-14T01:29:07;17.60;;;11.90;;
21743;SDS011;11034;48.556;9.342;2023-05-14T01:31:45;13.73;;;11.00;;
21743;SDS011;11034;48.556;9.342;2023-05-14T01:34:15;19.48;;;14.30;;
21743;SDS011;11034;48.556;9.342;2023-05-14T01:36:48;17.23;;;13.00;;
21743;SDS011;11034;48.556;9.342;2023-05-14T01:39:17;17.67;;;14.32;;
21743;SDS011;11034;48.556;9.342;2023-05-14T01:41:46;19.02;;;13.95;;
21743;SDS011;11034;48.556;9.342;2023-05-14T01:44:15;17.92;;;14.38;;
21743;SDS011;11034;48.556;9.342;2023-05-14T01:46:44;19.20;;;13.48;;
21743;SDS011;11034;48.556;9.342;2023-05-14T01:49:12;16.70;;;12.77;;
21743;SDS011;11034;48.556;9.342;2023-05-14T01:51:41;20.23;;;14.50;;
21743;SDS011;11034;48.556;9.342;2023-05-14T01:54:11;25.13;;;16.92;;
21743;SDS011;11034;48.556;9.342;2023-05-14T01:56:39;25.70;;;18.23;;
21743;SDS011;11034;48.556;9.342;2023-05-14T01:59:07;21.95;;;16.40;;
21743;SDS011;11034;48.556;9.342;2023-05-14T02:01:35;22.08;;;16.48;;
21743;SDS011;11034;48.556;9.342;2023-05-14T02:04:03;21.67;;;15.20;;
21743;SDS011;11034;48.556;9.342;2023-05-14T02:06:31;22.00;;;16.00;;
21743;SDS011;11034;48.556;9.342;2023-05-14T02:08:59;22.60;;;16.75;;
21743;SDS011;11034;48.556;9.342;2023-05-14T02:11:29;23.55;;;17.92;;
21743;SDS011;11034;48.556;9.342;2023-05-14T02:13:57;27.83;;;20.10;;
21743;SDS011;11034;48.556;9.342;2023-05-14T02:16:25;28.88;;;20.08;;
21743;SDS011;11034;48.556;9.342;2023-05-14T02:18:53;31.17;;;20.17;;
21743;SDS011;11034;48.556;9.342;2023-05-14T02:21:21;27.65;;;20.13;;
21743;SDS011;11034;48.556;9.342;2023-05-14T02:23:50;29.65;;;20.23;;
21743;SDS011;11034;48.556;9.342;2023-05-14T02:26:18;31.95;;;22.48;;
21743;SDS011;11034;48.556;9.342;2023-05-14T02:28:48;33.15;;;21.95;;
21743;SDS011;11034;48.556;9.342;2023-05-14T02:31:16;29.95;;;21.48;;
21743;SDS011;11034;48.556;9.342;2023-05-14T02:33:44;28.15;;;20.80;;
21743;SDS011;11034;48.556;9.342;2023-05-14T02:36:13;29.45;;;20.98;;
21743;SDS011;11034;48.556;9.342;2023-05-14T02:38:41;33.35;;;22.02;;
21743;SDS011;11034;48.556;9.342;2023-05-14T02:41:09;31.13;;;21.45;;
21743;SDS011;11034;48.556;9.342;2023-05-14T02:43:37;26.50;;;19.75;;
21743;SDS011;11034;48.556;9.342;2023-05-14T02:46:06;27.00;;;19.58;;
21743;SDS011;11034;48.556;9.342;2023-05-14T02:48:34;27.88;;;19.52;;
21743;SDS011;11034;48.556;9.342;2023-05-14T02:51:02;24.75;;;18.48;;
21743;SDS011;11034;48.556;9.342;2023-05-14T02:53:30;25.15;;;18.40;;
21743;SDS011;11034;48.556;9.342;2023-05-14T02:55:58;25.35;;;18.75;;
21743;SDS011;11034;48.556;9.342;2023-05-14T02:58:27;24.33;;;18.55;;
21743;SDS011;11034;48.556;9.342;2023-05-14T03:00:55;23.88;;;17.17;;
21743;SDS011;11034;48.556;9.342;2023-05-14T03:03:25;23.10;;;17.90;;
21743;SDS011;11034;48.556;9.342;2023-05-14T03:05:54;24.52;;;18.35;;
21743;SDS011;11034;48.556;9.342;2023-05-14T03:08:22;24.92;;;18.23;;
21743;SDS011;11034;48.556;9.342;2023-05-14T03:10:50;23.88;;;18.02;;
21743;SDS011;11034;48.556;9.342;2023-05-14T03:13:18;25.60;;;18.08;;
21743;SDS011;11034;48.556;9.342;2023-05-14T03:15:46;24.95;;;17.98;;
21743;SDS011;11034;48.556;9.342;2023-05-14T03:18:14;24.15;;;17.15;;
21743;SDS011;11034;48.556;9.342;2023-05-14T03:20:44;22.52;;;17.02;;
21743;SDS011;11034;48.556;9.342;2023-05-14T03:23:12;21.48;;;16.15;;
21743;SDS011;11034;48.556;9.342;2023-05-14T03:25:40;22.10;;;16.98;;
21743;SDS011;11034;48.556;9.342;2023-05-14T03:28:08;22.30;;;17.10;;
21743;SDS011;11034;48.556;9.342;2023-05-14T03:30:37;24.52;;;17.58;;
21743;SDS011;11034;48.556;9.342;2023-05-14T03:33:05;24.48;;;18.83;;
21743;SDS011;11034;48.556;9.342;2023-05-14T03:35:33;26.30;;;18.65;;
21743;SDS011;11034;48.556;9.342;2023-05-14T03:38:05;23.88;;;17.95;;
21743;SDS011;11034;48.556;9.342;2023-05-14T03:40:33;26.25;;;19.02;;
21743;SDS011;11034;48.556;9.342;2023-05-14T03:43:01;24.80;;;18.23;;
21743;SDS011;11034;48.556;9.342;2023-05-14T03:45:29;25.92;;;19.83;;
21743;SDS011;11034;48.556;9.342;2023-05-14T03:47:57;29.15;;;19.35;;
21743;SDS011;11034;48.556;9.342;2023-05-14T03:50:26;25.00;;;19.17;;
21743;SDS011;11034;48.556;9.342;2023-05-14T03:53:03;24.02;;;17.52;;
21743;SDS011;11034;48.556;9.342;2023-05-14T03:55:32;23.80;;;17.70;;
21743;SDS011;11034;48.556;9.342;2023-05-14T03:58:00;25.20;;;18.33;;
21743;SDS011;11034;48.556;9.342;2023-05-14T04:00:28;22.58;;;16.65;;
21743;SDS011;11034;48.556;9.342;2023-05-14T04:02:56;23.35;;;17.10;;
21743;SDS011;11034;48.556;9.342;2023-05-14T04:05:24;22.65;;;17.55;;
21743;SDS011;11034;48.556;9.342;2023-05-14T04:07:52;25.20;;;18.10;;
21743;SDS011;11034;48.556;9.342;2023-05-14T04:10:22;23.70;;;18.27;;
21743;SDS011;11034;48.556;9.342;2023-05-14T04:12:50;24.23;;;19.02;;
21743;SDS011;11034;48.556;9.342;2023-05-14T04:15:18;25.80;;;18.67;;
21743;SDS011;11034;48.556;9.342;2023-05-14T04:17:46;30.55;;;19.50;;
21743;SDS011;11034;48.556;9.342;2023-05-14T04:20:14;26.42;;;19.42;;
21743;SDS011;11034;48.556;9.342;2023-05-14T04:22:43;30.45;;;20.83;;
21743;SDS011;11034;48.556;9.342;2023-05-14T04:25:11;31.33;;;21.83;;
21743;SDS011;11034;48.556;9.342;2023-05-14T04:27:41;33.58;;;22.55;;
21743;SDS011;11034;48.556;9.342;2023-05-14T04:30:09;34.90;;;23.48;;
21743;SDS011;11034;48.556;9.342;2023-05-14T04:32:38;38.65;;;23.88;;
21743;SDS011;11034;48.556;9.342;2023-05-14T04:35:06;34.10;;;23.58;;
21743;SDS011;11034;48.556;9.342;2023-05-14T04:37:37;38.75;;;24.65;;
21743;SDS011;11034;48.556;9.342;2023-05-14T04:40:30;34.83;;;23.98;;
21743;SDS011;11034;48.556;9.342;2023-05-14T04:43:20;32.63;;;22.13;;
21743;SDS011;11034;48.556;9.342;2023-05-14T04:45:49;35.88;;;22.02;;
21743;SDS011;11034;48.556;9.342;2023-05-14T04:48:17;33.20;;;22.30;;
21743;SDS011;11034;48.556;9.342;2023-05-14T04:50:46;34.53;;;21.58;;
21743;SDS011;11034;48.556;9.342;2023-05-14T04:53:17;33.03;;;22.35;;
21743;SDS011;11034;48.556;9.342;2023-05-14T04:55:45;36.45;;;22.10;;
21743;SDS011;11034;48.556;9.342;2023-05-14T04:58:14;40.80;;;22.63;;
21743;SDS011;11034;48.556;9.342;2023-05-14T05:00:43;41.85;;;23.83;;
21743;SDS011;11034;48.556;9.342;2023-05-14T05:03:11;34.50;;;23.08;;
21743;SDS011;11034;48.556;9.342;2023-05-14T05:05:40;45.00;;;23.73;;
21743;SDS011;11034;48.556;9.342;2023-05-14T05:08:08;33.03;;;22.02;;
21743;SDS011;11034;48.556;9.342;2023-05-14T05:10:37;36.33;;;23.02;;
21743;SDS011;11034;48.556;9.342;2023-05-14T05:13:08;150.25;;;26.33;;
21743;SDS011;11034;48.556;9.342;2023-05-14T05:15:36;35.67;;;21.08;;
21743;SDS011;11034;48.556;9.342;2023-05-14T05:18:05;46.92;;;21.55;;
21743;SDS011;11034;48.556;9.342;2023-05-14T05:20:34;192.32;;;25.85;;
21743;SDS011;11034;48.556;9.342;2023-05-14T05:23:02;71.55;;;22.60;;
21743;SDS011;11034;48.556;9.342;2023-05-14T05:25:30;138.40;;;23.88;;
21743;SDS011;11034;48.556;9.342;2023-05-14T05:27:58;52.03;;;21.77;;
21743;SDS011;11034;48.556;9.342;2023-05-14T05:30:26;94.72;;;20.70;;
21743;SDS011;11034;48.556;9.342;2023-05-14T05:32:55;28.98;;;19.10;;
21743;SDS011;11034;48.556;9.342;2023-05-14T05:35:25;73.82;;;20.45;;
21743;SDS011;11034;48.556;9.342;2023-05-14T05:37:53;256.85;;;25.55;;
21743;SDS011;11034;48.556;9.342;2023-05-14T05:40:21;110.95;;;21.60;;
21743;SDS011;11034;48.556;9.342;2023-05-14T05:42:49;53.85;;;21.23;;
21743;SDS011;11034;48.556;9.342;2023-05-14T05:45:20;37.47;;;21.10;;
21743;SDS011;11034;48.556;9.342;2023-05-14T05:47:48;32.45;;;21.58;;
21743;SDS011;11034;48.556;9.342;2023-05-14T05:50:16;34.35;;;22.40;;
21743;SDS011;11034;48.556;9.342;2023-05-14T05:52:46;32.92;;;22.10;;
21743;SDS011;11034;48.556;9.342;2023-05-14T05:55:14;33.03;;;21.63;;
21743;SDS011;11034;48.556;9.342;2023-05-14T05:57:43;38.00;;;22.85;;
21743;SDS011;11034;48.556;9.342;2023-05-14T06:00:11;34.45;;;22.67;;
21743;SDS011;11034;48.556;9.342;2023-05-14T06:02:40;32.83;;;22.27;;
21743;SDS011;11034;48.556;9.342;2023-05-14T06:05:09;27.52;;;18.40;;
21743;SDS011;11034;48.556;9.342;2023-05-14T06:07:37;24.73;;;17.33;;
21743;SDS011;11034;48.556;9.342;2023-05-14T06:10:12;22.90;;;16.23;;
21743;SDS011;11034;48.556;9.342;2023-05-14T06:12:42;25.27;;;16.80;;
21743;SDS011;11034;48.556;9.342;2023-05-14T06:15:11;23.52;;;17.52;;
21743;SDS011;11034;48.556;9.342;2023-05-14T06:17:39;22.05;;;16.35;;
21743;SDS011;11034;48.556;9.342;2023-05-14T06:20:07;23.63;;;17.13;;
21743;SDS011;11034;48.556;9.342;2023-05-14T06:22:36;23.20;;;16.58;;
21743;SDS011;11034;48.556;9.342;2023-05-14T06:25:04;20.95;;;15.75;;
21743;SDS011;11034;48.556;9.342;2023-05-14T06:27:34;21.80;;;15.52;;
21743;SDS011;11034;48.556;9.342;2023-05-14T06:30:04;23.73;;;15.77;;
21743;SDS011;11034;48.556;9.342;2023-05-14T06:32:33;21.23;;;15.48;;
21743;SDS011;11034;48.556;9.342;2023-05-14T06:35:05;21.13;;;16.33;;
21743;SDS011;11034;48.556;9.342;2023-05-14T06:37:34;20.70;;;15.45;;
21743;SDS011;11034;48.556;9.342;2023-05-14T06:40:02;19.65;;;14.65;;
21743;SDS011;11034;48.556;9.342;2023-05-14T06:42:31;19.95;;;14.63;;
21743;SDS011;11034;48.556;9.342;2023-05-14T06:45:04;18.23;;;14.32;;
21743;SDS011;11034;48.556;9.342;2023-05-14T06:47:36;18.75;;;14.68;;
21743;SDS011;11034;48.556;9.342;2023-05-14T06:50:06;17.73;;;14.35;;
21743;SDS011;11034;48.556;9.342;2023-05-14T06:52:36;20.27;;;14.18;;
21743;SDS011;11034;48.556;9.342;2023-05-14T06:55:05;18.10;;;13.88;;
21743;SDS011;11034;48.556;9.342;2023-05-14T06:57:33;18.20;;;14.07;;
21743;SDS011;11034;48.556;9.342;2023-05-14T07:00:06;19.63;;;14.32;;
21743;SDS011;11034;48.556;9.342;2023-05-14T07:02:35;18.67;;;15.00;;
21743;SDS011;11034;48.556;9.342;2023-05-14T07:05:03;23.02;;;15.18;;
21743;SDS011;11034;48.556;9.342;2023-05-14T07:07:33;19.73;;;14.30;;
21743;SDS011;11034;48.556;9.342;2023-05-14T07:10:01;18.27;;;14.15;;
21743;SDS011;11034;48.556;9.342;2023-05-14T07:12:30;16.73;;;13.25;;
21743;SDS011;11034;48.556;9.342;2023-05-14T07:14:58;18.05;;;13.68;;
21743;SDS011;11034;48.556;9.342;2023-05-14T07:17:27;15.20;;;12.85;;
21743;SDS011;11034;48.556;9.342;2023-05-14T07:19:55;15.93;;;12.77;;
21743;SDS011;11034;48.556;9.342;2023-05-14T07:22:24;20.52;;;13.85;;
21743;SDS011;11034;48.556;9.342;2023-05-14T07:24:52;14.07;;;11.63;;
21743;SDS011;11034;48.556;9.342;2023-05-14T07:27:20;17.48;;;12.95;;
21743;SDS011;11034;48.556;9.342;2023-05-14T07:29:48;16.95;;;12.82;;
21743;SDS011;11034;48.556;9.342;2023-05-14T07:32:16;16.85;;;13.05;;
21743;SDS011;11034;48.556;9.342;2023-05-14T07:34:48;15.80;;;12.93;;
21743;SDS011;11034;48.556;9.342;2023-05-14T07:37:16;14.15;;;12.13;;
21743;SDS011;11034;48.556;9.342;2023-05-14T07:39:44;14.13;;;11.20;;
21743;SDS011;11034;48.556;9.342;2023-05-14T07:42:15;15.55;;;11.90;;
21743;SDS011;11034;48.556;9.342;2023-05-14T07:45:00;13.95;;;11.93;;
21743;SDS011;11034;48.556;9.342;2023-05-14T07:50:25;16.90;;;13.65;;
21743;SDS011;11034;48.556;9.342;2023-05-14T07:52:53;14.45;;;12.80;;
21743;SDS011;11034;48.556;9.342;2023-05-14T07:55:22;14.40;;;11.20;;
21743;SDS011;11034;48.556;9.342;2023-05-14T07:57:54;15.73;;;12.45;;
21743;SDS011;11034;48.556;9.342;2023-05-14T08:00:22;14.35;;;12.43;;
21743;SDS011;11034;48.556;9.342;2023-05-14T08:02:51;16.13;;;12.35;;
21743;SDS011;11034;48.556;9.342;2023-05-14T08:05:19;14.23;;;11.73;;
21743;SDS011;11034;48.556;9.342;2023-05-14T08:07:57;14.38;;;12.30;;
21743;SDS011;11034;48.556;9.342;2023-05-14T08:10:28;15.02;;;12.55;;
21743;SDS011;11034;48.556;9.342;2023-05-14T08:12:56;14.27;;;11.77;;
21743;SDS011;11034;48.556;9.342;2023-05-14T08:15:24;14.45;;;11.98;;
21743;SDS011;11034;48.556;9.342;2023-05-14T08:17:53;14.65;;;12.20;;
21743;SDS011;11034;48.556;9.342;2023-05-14T08:20:21;15.73;;;12.18;;
21743;SDS011;11034;48.556;9.342;2023-05-14T08:22:51;15.88;;;12.63;;
21743;SDS011;11034;48.556;9.342;2023-05-14T08:25:20;14.38;;;11.90;;
21743;SDS011;11034;48.556;9.342;2023-05-14T08:27:48;13.43;;;11.95;;
21743;SDS011;11034;48.556;9.342;2023-05-14T08:30:16;13.73;;;11.18;;
21743;SDS011;11034;48.556;9.342;2023-05-14T08:32:44;13.35;;;11.65;;
21743;SDS011;11034;48.556;9.342;2023-05-14T08:35:12;13.70;;;11.90;;
21743;SDS011;11034;48.556;9.342;2023-05-14T08:37:41;13.68;;;11.70;;
21743;SDS011;11034;48.556;9.342;2023-05-14T08:40:09;14.05;;;11.82;;
21743;SDS011;11034;48.556;9.342;2023-05-14T08:42:39;13.45;;;11.15;;
21743;SDS011;11034;48.556;9.342;2023-05-14T08:45:12;13.70;;;12.18;;
21743;SDS011;11034;48.556;9.342;2023-05-14T08:47:45;12.88;;;10.57;;
21743;SDS011;11034;48.556;9.342;2023-05-14T08:50:16;14.43;;;11.30;;
21743;SDS011;11034;48.556;9.342;2023-05-14T08:52:48;12.63;;;10.73;;
21743;SDS011;11034;48.556;9.342;2023-05-14T08:55:16;12.77;;;11.25;;
21743;SDS011;11034;48.556;9.342;2023-05-14T08:57:47;16.52;;;11.88;;
21743;SDS011;11034;48.556;9.342;2023-05-14T09:00:15;13.43;;;11.75;;
21743;SDS011;11034;48.556;9.342;2023-05-14T09:02:44;14.10;;;12.10;;
21743;SDS011;11034;48.556;9.342;2023-05-14T09:05:14;15.23;;;12.05;;
21743;SDS011;11034;48.556;9.342;2023-05-14T09:07:43;16.98;;;13.73;;
21743;SDS011;11034;48.556;9.342;2023-05-14T09:10:11;16.30;;;13.88;;
21743;SDS011;11034;48.556;9.342;2023-05-14T09:12:40;16.50;;;13.45;;
21743;SDS011;11034;48.556;9.342;2023-05-14T09:15:10;14.00;;;12.18;;
21743;SDS011;11034;48.556;9.342;2023-05-14T09:17:40;17.52;;;13.43;;
21743;SDS011;11034;48.556;9.342;2023-05-14T09:20:08;15.57;;;12.48;;
21743;SDS011;11034;48.556;9.342;2023-05-14T09:22:38;17.80;;;12.65;;
21743;SDS011;11034;48.556;9.342;2023-05-14T09:25:07;14.63;;;12.30;;
21743;SDS011;11034;48.556;9.342;2023-05-14T09:27:37;15.88;;;12.55;;
21743;SDS011;11034;48.556;9.342;2023-05-14T09:30:06;14.95;;;11.63;;
21743;SDS011;11034;48.556;9.342;2023-05-14T09:32:40;13.43;;;10.57;;
21743;SDS011;11034;48.556;9.342;2023-05-14T09:35:12;14.02;;;10.82;;
21743;SDS011;11034;48.556;9.342;2023-05-14T09:37:43;13.82;;;11.48;;
21743;SDS011;11034;48.556;9.342;2023-05-14T09:40:12;14.45;;;11.45;;
21743;SDS011;11034;48.556;9.342;2023-05-14T09:42:41;15.20;;;11.35;;
21743;SDS011;11034;48.556;9.342;2023-05-14T09:45:09;14.35;;;11.45;;
21743;SDS011;11034;48.556;9.342;2023-05-14T09:47:39;16.55;;;11.88;;
21743;SDS011;11034;48.556;9.342;2023-05-14T09:50:08;14.55;;;11.07;;
21743;SDS011;11034;48.556;9.342;2023-05-14T09:52:37;14.73;;;11.32;;
21743;SDS011;11034;48.556;9.342;2023-05-14T09:55:05;12.25;;;10.88;;
21743;SDS011;11034;48.556;9.342;2023-05-14T09:57:34;13.95;;;10.68;;
21743;SDS011;11034;48.556;9.342;2023-05-14T10:00:03;15.07;;;11.15;;
21743;SDS011;11034;48.556;9.342;2023-05-14T10:02:40;14.10;;;10.68;;
21743;SDS011;11034;48.556;9.342;2023-05-14T10:05:11;13.60;;;11.20;;
21743;SDS011;11034;48.556;9.342;2023-05-14T10:07:41;14.98;;;11.23;;
21743;SDS011;11034;48.556;9.342;2023-05-14T10:10:14;15.32;;;12.32;;
21743;SDS011;11034;48.556;9.342;2023-05-14T10:12:45;12.32;;;10.80;;
21743;SDS011;11034;48.556;9.342;2023-05-14T10:15:19;13.02;;;10.80;;
21743;SDS011;11034;48.556;9.342;2023-05-14T10:17:53;13.40;;;10.57;;
21743;SDS011;11034;48.556;9.342;2023-05-14T10:20:23;12.45;;;10.25;;
21743;SDS011;11034;48.556;9.342;2023-05-14T10:22:53;13.60;;;10.68;;
21743;SDS011;11034;48.556;9.342;2023-05-14T10:25:22;17.15;;;10.05;;
21743;SDS011;11034;48.556;9.342;2023-05-14T10:27:50;10.82;;;9.48;;
21743;SDS011;11034;48.556;9.342;2023-05-14T10:30:22;8.98;;;8.07;;
21743;SDS011;11034;48.556;9.342;2023-05-14T10:35:55;7.72;;;6.50;;
21743;SDS011;11034;48.556;9.342;2023-05-14T10:38:26;8.88;;;6.70;;
21743;SDS011;11034;48.556;9.342;2023-05-14T10:40:59;9.32;;;6.55;;
21743;SDS011;11034;48.556;9.342;2023-05-14T10:43:28;8.15;;;6.15;;
21743;SDS011;11034;48.556;9.342;2023-05-14T10:45:57;7.85;;;6.43;;
21743;SDS011;11034;48.556;9.342;2023-05-14T10:48:29;7.75;;;6.25;;
21743;SDS011;11034;48.556;9.342;2023-05-14T10:50:58;7.03;;;6.13;;
21743;SDS011;11034;48.556;9.342;2023-05-14T10:53:30;6.88;;;6.18;;
21743;SDS011;11034;48.556;9.342;2023-05-14T10:56:03;7.82;;;7.00;;
21743;SDS011;11034;48.556;9.342;2023-05-14T10:58:36;9.60;;;8.05;;
21743;SDS011;11034;48.556;9.342;2023-05-14T11:01:07;11.63;;;8.13;;
21743;SDS011;11034;48.556;9.342;2023-05-14T11:03:39;9.10;;;7.07;;
21743;SDS011;11034;48.556;9.342;2023-05-14T11:06:09;9.20;;;7.22;;
21743;SDS011;11034;48.556;9.342;2023-05-14T11:08:38;7.50;;;6.70;;
21743;SDS011;11034;48.556;9.342;2023-05-14T11:11:10;9.23;;;7.22;;
21743;SDS011;11034;48.556;9.342;2023-05-14T11:13:41;9.10;;;7.50;;
21743;SDS011;11034;48.556;9.342;2023-05-14T11:16:09;8.55;;;7.22;;
21743;SDS011;11034;48.556;9.342;2023-05-14T11:18:53;8.57;;;7.65;;
21743;SDS011;11034;48.556;9.342;2023-05-14T11:21:29;11.13;;;7.88;;
21743;SDS011;11034;48.556;9.342;2023-05-14T11:23:58;9.32;;;7.95;;
21743;SDS011;11034;48.556;9.342;2023-05-14T11:26:26;8.60;;;7.65;;
21743;SDS011;11034;48.556;9.342;2023-05-14T11:28:58;9.02;;;7.95;;
21743;SDS011;11034;48.556;9.342;2023-05-14T11:31:26;9.48;;;7.90;;
21743;SDS011;11034;48.556;9.342;2023-05-14T11:33:56;10.48;;;8.52;;
21743;SDS011;11034;48.556;9.342;2023-05-14T11:36:25;13.40;;;8.77;;
21743;SDS011;11034;48.556;9.342;2023-05-14T11:38:56;14.10;;;10.02;;
21743;SDS011;11034;48.556;9.342;2023-05-14T11:41:27;13.25;;;10.07;;
21743;SDS011;11034;48.556;9.342;2023-05-14T11:43:56;13.77;;;9.85;;
21743;SDS011;11034;48.556;9.342;2023-05-14T11:46:25;11.60;;;9.10;;
21743;SDS011;11034;48.556;9.342;2023-05-14T11:48:56;10.63;;;8.43;;
21743;SDS011;11034;48.556;9.342;2023-05-14T11:51:24;10.98;;;8.45;;
21743;SDS011;11034;48.556;9.342;2023-05-14T11:53:52;9.75;;;8.75;;
21743;SDS011;11034;48.556;9.342;2023-05-14T11:56:20;11.00;;;9.32;;
21743;SDS011;11034;48.556;9.342;2023-05-14T11:58:54;10.60;;;8.70;;
21743;SDS011;11034;48.556;9.342;2023-05-14T12:01:23;10.00;;;7.88;;
21743;SDS011;11034;48.556;9.342;2023-05-14T12:03:51;9.57;;;7.80;;
21743;SDS011;11034;48.556;9.342;2023-05-14T12:06:21;8.07;;;7.28;;
21743;SDS011;11034;48.556;9.342;2023-05-14T12:08:56;10.93;;;7.63;;
21743;SDS011;11034;48.556;9.342;2023-05-14T12:11:29;9.85;;;7.82;;
21743;SDS011;11034;48.556;9.342;2023-05-14T12:13:58;7.90;;;7.10;;
21743;SDS011;11034;48.556;9.342;2023-05-14T12:16:28;7.70;;;6.55;;
21743;SDS011;11034;48.556;9.342;2023-05-14T12:18:58;8.20;;;7.05;;
21743;SDS011;11034;48.556;9.342;2023-05-14T12:21:28;7.75;;;6.80;;
21743;SDS011;11034;48.556;9.342;2023-05-14T12:23:57;7.88;;;6.70;;
21743;SDS011;11034;48.556;9.342;2023-05-14T12:26:26;7.78;;;5.82;;
21743;SDS011;11034;48.556;9.342;2023-05-14T12:28:56;8.18;;;5.75;;
21743;SDS011;11034;48.556;9.342;2023-05-14T12:31:26;7.20;;;6.20;;
21743;SDS011;11034;48.556;9.342;2023-05-14T12:33:55;7.32;;;5.70;;
21743;SDS011;11034;48.556;9.342;2023-05-14T12:36:23;5.97;;;5.18;;
21743;SDS011;11034;48.556;9.342;2023-05-14T12:38:57;9.13;;;4.95;;
21743;SDS011;11034;48.556;9.342;2023-05-14T12:41:28;5.85;;;4.50;;
21743;SDS011;11034;48.556;9.342;2023-05-14T12:43:57;6.38;;;4.47;;
21743;SDS011;11034;48.556;9.342;2023-05-14T12:46:26;4.88;;;3.92;;
21743;SDS011;11034;48.556;9.342;2023-05-14T12:48:54;4.13;;;3.72;;
21743;SDS011;11034;48.556;9.342;2023-05-14T12:51:23;4.50;;;3.33;;
21743;SDS011;11034;48.556;9.342;2023-05-14T12:53:51;3.63;;;3.30;;
21743;SDS011;11034;48.556;9.342;2023-05-14T12:56:21;6.18;;;3.25;;
21743;SDS011;11034;48.556;9.342;2023-05-14T12:58:53;5.10;;;3.13;;
21743;SDS011;11034;48.556;9.342;2023-05-14T13:01:22;3.40;;;3.10;;
21743;SDS011;11034;48.556;9.342;2023-05-14T13:03:50;4.38;;;3.25;;
21743;SDS011;11034;48.556;9.342;2023-05-14T13:06:18;3.40;;;3.10;;
21743;SDS011;11034;48.556;9.342;2023-05-14T13:08:47;3.42;;;3.00;;
21743;SDS011;11034;48.556;9.342;2023-05-14T13:11:15;3.78;;;3.00;;
21743;SDS011;11034;48.556;9.342;2023-05-14T13:13:44;4.60;;;3.28;;
21743;SDS011;11034;48.556;9.342;2023-05-14T13:16:12;3.50;;;3.20;;
21743;SDS011;11034;48.556;9.342;2023-05-14T13:18:42;4.35;;;3.20;;
21743;SDS011;11034;48.556;9.342;2023-05-14T13:21:11;4.43;;;3.30;;
21743;SDS011;11034;48.556;9.342;2023-05-14T13:23:39;3.38;;;3.08;;
21743;SDS011;11034;48.556;9.342;2023-05-14T13:26:07;4.00;;;3.60;;
21743;SDS011;11034;48.556;9.342;2023-05-14T13:28:35;5.07;;;3.58;;
21743;SDS011;11034;48.556;9.342;2023-05-14T13:31:05;4.45;;;3.78;;
21743;SDS011;11034;48.556;9.342;2023-05-14T13:33:35;5.05;;;3.80;;
21743;SDS011;11034;48.556;9.342;2023-05-14T13:36:04;5.35;;;3.45;;
21743;SDS011;11034;48.556;9.342;2023-05-14T13:38:33;4.32;;;3.70;;
21743;SDS011;11034;48.556;9.342;2023-05-14T13:41:01;3.80;;;3.50;;
21743;SDS011;11034;48.556;9.342;2023-05-14T13:43:30;5.32;;;3.90;;
21743;SDS011;11034;48.556;9.342;2023-05-14T13:45:58;3.85;;;3.45;;
21743;SDS011;11034;48.556;9.342;2023-05-14T13:48:28;5.00;;;3.60;;
21743;SDS011;11034;48.556;9.342;2023-05-14T13:50:57;6.47;;;3.67;;
21743;SDS011;11034;48.556;9.342;2023-05-14T13:53:25;3.78;;;3.38;;
21743;SDS011;11034;48.556;9.342;2023-05-14T13:55:54;4.72;;;3.40;;
21743;SDS011;11034;48.556;9.342;2023-05-14T13:58:23;3.80;;;3.40;;
21743;SDS011;11034;48.556;9.342;2023-05-14T14:00:52;3.90;;;3.50;;
21743;SDS011;11034;48.556;9.342;2023-05-14T14:03:21;4.93;;;3.67;;
21743;SDS011;11034;48.556;9.342;2023-05-14T14:05:51;4.25;;;3.80;;
21743;SDS011;11034;48.556;9.342;2023-05-14T14:08:19;4.10;;;3.40;;
21743;SDS011;11034;48.556;9.342;2023-05-14T14:10:49;5.03;;;3.80;;
21743;SDS011;11034;48.556;9.342;2023-05-14T14:13:19;5.43;;;3.78;;
21743;SDS011;11034;48.556;9.342;2023-05-14T14:15:48;5.63;;;3.60;;
21743;SDS011;11034;48.556;9.342;2023-05-14T14:18:16;4.03;;;3.45;;
21743;SDS011;11034;48.556;9.342;2023-05-14T14:20:44;4.53;;;3.53;;
21743;SDS011;11034;48.556;9.342;2023-05-14T14:23:14;4.45;;;3.70;;
21743;SDS011;11034;48.556;9.342;2023-05-14T14:25:42;5.18;;;3.70;;
21743;SDS011;11034;48.556;9.342;2023-05-14T14:28:12;4.43;;;3.60;;
21743;SDS011;11034;48.556;9.342;2023-05-14T14:30:40;3.70;;;3.33;;
21743;SDS011;11034;48.556;9.342;2023-05-14T14:33:09;4.03;;;3.35;;
21743;SDS011;11034;48.556;9.342;2023-05-14T14:35:37;4.45;;;3.05;;
21743;SDS011;11034;48.556;9.342;2023-05-14T14:38:05;3.63;;;3.25;;
21743;SDS011;11034;48.556;9.342;2023-05-14T14:40:34;3.47;;;3.17;;
21743;SDS011;11034;48.556;9.342;2023-05-14T14:43:02;3.70;;;3.30;;
21743;SDS011;11034;48.556;9.342;2023-05-14T14:45:30;3.40;;;2.90;;
21743;SDS011;11034;48.556;9.342;2023-05-14T14:48:20;3.17;;;2.83;;